Time;durP1;ratioP1;P1;durP2;ratioP2;P2;SDS_P1;SDS_P2;PMS_P1;PMS_P2;Temp;Humidity;BMP_temperature;BMP_pressure;BME280_temperature;BME280_humidity;BME280_pressure;Samples;Min_cycle;Max_cycle;Signal;HPM_P1;HPM_P2
2023/04/17 00:01:02;;;;;;;52.23;30.17;;;10.20;99.90;;;;;;5054257;28;20037;-54
2023/04/17 00:03:30;;;;;;;49.27;29.50;;;10.20;99.90;;;;;;5053977;28;20036;-51
2023/04/17 00:05:57;;;;;;;53.67;29.57;;;10.20;99.90;;;;;;5054225;28;20033;-53
2023/04/17 00:08:22;;;;;;;54.60;30.33;;;10.20;99.90;;;;;;5072433;28;20028;-52
2023/04/17 00:10:48;;;;;;;52.07;29.67;;;10.10;99.90;;;;;;5073972;28;20408;-53
2023/04/17 00:13:14;;;;;;;54.33;29.87;;;10.20;99.90;;;;;;5058152;28;20405;-52
2023/04/17 00:15:39;;;;;;;54.77;30.80;;;10.10;99.90;;;;;;5053909;28;20547;-49
2023/04/17 00:18:05;;;;;;;54.70;30.53;;;10.10;99.90;;;;;;5053713;28;20028;-49
2023/04/17 00:20:31;;;;;;;48.83;28.93;;;10.00;99.90;;;;;;5053951;28;20103;-54
2023/04/17 00:22:56;;;;;;;51.83;27.93;;;10.10;99.90;;;;;;5053818;28;20409;-54
2023/04/17 00:25:22;;;;;;;54.30;31.10;;;10.10;99.90;;;;;;5053614;28;20148;-51
2023/04/17 00:27:49;;;;;;;54.17;30.13;;;10.10;99.90;;;;;;5053195;28;20033;-53
2023/04/17 00:30:14;;;;;;;47.30;28.97;;;10.10;99.90;;;;;;5053718;28;20127;-54
2023/04/17 00:32:40;;;;;;;50.03;28.67;;;10.10;99.90;;;;;;5053641;28;20111;-52
2023/04/17 00:35:06;;;;;;;53.13;30.27;;;10.10;99.90;;;;;;5053533;28;20029;-50
2023/04/17 00:37:32;;;;;;;49.33;29.63;;;10.10;99.90;;;;;;5035383;28;20078;-50
2023/04/17 00:39:57;;;;;;;45.57;29.10;;;10.10;99.90;;;;;;5036570;28;20032;-55
2023/04/17 00:42:23;;;;;;;53.87;30.50;;;10.10;99.90;;;;;;5053471;28;20025;-51
2023/04/17 00:44:49;;;;;;;46.03;28.30;;;10.00;99.90;;;;;;5053047;28;20516;-53
2023/04/17 00:47:15;;;;;;;49.03;29.13;;;10.00;99.90;;;;;;5053213;28;20453;-53
2023/04/17 00:49:41;;;;;;;51.53;29.40;;;10.00;99.90;;;;;;5053525;28;20028;-50
2023/04/17 00:52:07;;;;;;;54.03;29.30;;;10.00;99.90;;;;;;5053300;28;20440;-53
2023/04/17 00:54:34;;;;;;;50.43;29.70;;;10.00;99.90;;;;;;5035059;28;20135;-52
2023/04/17 00:57:01;;;;;;;56.70;30.53;;;10.00;99.90;;;;;;5035064;28;20482;-50
2023/04/17 00:59:28;;;;;;;49.97;29.73;;;10.00;99.90;;;;;;5052964;28;20461;-53
2023/04/17 01:01:53;;;;;;;47.00;29.63;;;10.00;99.90;;;;;;5052146;28;20025;-53
2023/04/17 01:04:19;;;;;;;52.03;30.37;;;10.00;99.90;;;;;;5052758;28;20494;-52
2023/04/17 01:06:46;;;;;;;54.67;29.30;;;10.00;99.90;;;;;;5034957;28;20032;-51
2023/04/17 01:09:12;;;;;;;51.97;31.27;;;10.00;99.90;;;;;;5052822;28;20021;-53
2023/04/17 01:11:38;;;;;;;52.70;29.43;;;10.00;99.90;;;;;;5034823;28;20021;-52
2023/04/17 01:14:04;;;;;;;54.40;30.33;;;10.00;99.90;;;;;;5051296;28;20116;-52
2023/04/17 01:16:30;;;;;;;50.77;29.53;;;10.00;99.90;;;;;;5052135;28;20044;-52
2023/04/17 01:18:55;;;;;;;50.63;30.00;;;10.00;99.90;;;;;;5034799;28;20032;-53
2023/04/17 01:21:21;;;;;;;58.03;30.87;;;10.00;99.90;;;;;;5052638;28;20047;-52
2023/04/17 01:23:50;;;;;;;52.03;30.60;;;10.00;99.90;;;;;;5034684;28;20044;-52
2023/04/17 01:26:20;;;;;;;;;;;10.00;99.90;;;;;;5035252;28;20082;-50
2023/04/17 01:28:54;;;;;;;51.77;29.80;;;9.90;99.90;;;;;;5052342;28;19912;-52
2023/04/17 01:31:21;;;;;;;51.17;30.13;;;9.90;99.90;;;;;;5034668;28;20033;-52
2023/04/17 01:33:47;;;;;;;52.37;30.87;;;9.90;99.90;;;;;;5034483;28;20044;-53
2023/04/17 01:36:14;;;;;;;51.53;29.97;;;9.90;99.90;;;;;;5018029;28;20556;-53
2023/04/17 01:38:39;;;;;;;52.73;30.77;;;9.90;99.90;;;;;;5034231;28;20025;-52
2023/04/17 01:41:08;;;;;;;50.90;31.43;;;10.00;99.90;;;;;;5052349;28;20039;-50
2023/04/17 01:43:43;;;;;;;60.22;31.65;;;9.90;99.90;;;;;;5039208;28;20044;-52
2023/04/17 01:46:09;;;;;;;57.90;31.17;;;9.80;99.90;;;;;;5052318;28;20456;-52
2023/04/17 01:48:35;;;;;;;55.90;31.30;;;9.80;99.90;;;;;;5050480;28;20036;-52
2023/04/17 01:51:01;;;;;;;59.63;31.67;;;9.80;99.90;;;;;;5049770;28;20025;-51
2023/04/17 01:53:29;;;;;;;56.53;32.67;;;9.80;99.90;;;;;;5034085;28;20029;-53
2023/04/17 01:55:55;;;;;;;57.50;31.90;;;9.80;99.90;;;;;;5052110;28;20029;-52
2023/04/17 01:58:22;;;;;;;59.60;33.43;;;9.80;99.90;;;;;;5033902;28;20033;-54
2023/04/17 02:00:48;;;;;;;55.87;32.73;;;9.80;99.90;;;;;;5034083;28;20059;-51
2023/04/17 02:03:15;;;;;;;63.40;33.37;;;9.80;99.90;;;;;;5051840;28;20223;-50
2023/04/17 02:05:43;;;;;;;52.60;32.17;;;9.80;99.90;;;;;;5033937;28;20029;-52
2023/04/17 02:08:11;;;;;;;55.27;32.27;;;9.80;99.90;;;;;;5051550;28;20033;-51
2023/04/17 02:10:37;;;;;;;55.10;32.87;;;9.70;99.90;;;;;;5051853;28;20078;-54
2023/04/17 02:13:02;;;;;;;67.10;33.13;;;9.80;99.90;;;;;;5051453;28;20028;-50
2023/04/17 02:15:28;;;;;;;60.80;34.40;;;9.80;99.90;;;;;;5033654;28;20029;-53
2023/04/17 02:17:54;;;;;;;58.43;35.17;;;9.80;99.90;;;;;;5033504;28;20037;-53
2023/04/17 02:20:20;;;;;;;67.77;35.10;;;9.70;99.90;;;;;;5051573;28;20078;-53
2023/04/17 02:22:46;;;;;;;60.17;35.57;;;9.70;99.90;;;;;;5051538;28;20482;-54
2023/04/17 02:25:11;;;;;;;59.23;34.80;;;9.70;99.90;;;;;;5051382;28;20029;-51
2023/04/17 02:27:37;;;;;;;66.00;35.60;;;9.70;99.90;;;;;;5033018;28;20037;-53
2023/04/17 02:30:08;;;;;;;67.67;35.67;;;9.70;99.90;;;;;;5033525;28;20049;-54
2023/04/17 02:32:33;;;;;;;62.87;35.80;;;9.60;99.90;;;;;;5051399;28;20035;-55
2023/04/17 02:35:00;;;;;;;64.53;36.03;;;9.70;99.90;;;;;;5033171;28;20401;-51
2023/04/17 02:37:25;;;;;;;65.70;36.13;;;9.70;99.90;;;;;;5033126;28;20025;-50
2023/04/17 02:39:53;;;;;;;67.23;36.70;;;9.70;99.90;;;;;;5033195;28;20182;-54
2023/04/17 02:42:19;;;;;;;67.83;36.53;;;9.70;99.90;;;;;;5033360;28;20037;-53
2023/04/17 02:44:45;;;;;;;68.33;37.53;;;9.70;99.90;;;;;;5032800;28;20029;-50
2023/04/17 02:47:11;;;;;;;67.03;36.57;;;9.60;99.90;;;;;;5033037;28;20043;-51
2023/04/17 02:49:37;;;;;;;62.53;33.97;;;9.60;99.90;;;;;;5050832;28;20025;-52
2023/04/17 02:52:03;;;;;;;68.93;36.83;;;9.60;99.90;;;;;;5051117;28;20021;-51
2023/04/17 02:54:29;;;;;;;62.47;36.00;;;9.60;99.90;;;;;;5032954;28;20025;-52
2023/04/17 02:56:57;;;;;;;69.57;37.77;;;9.60;99.90;;;;;;5032513;28;20025;-54
2023/04/17 02:59:25;;;;;;;66.82;36.22;;;9.50;99.90;;;;;;5032753;28;20063;-52
2023/04/17 03:01:51;;;;;;;64.60;37.20;;;9.50;99.90;;;;;;5033106;28;20190;-52
2023/04/17 03:04:18;;;;;;;73.93;37.87;;;9.40;99.90;;;;;;5032861;28;20037;-52
2023/04/17 03:06:44;;;;;;;66.50;37.73;;;9.40;99.90;;;;;;5050599;28;20029;-52
2023/04/17 03:09:11;;;;;;;66.37;35.97;;;9.40;99.90;;;;;;5050663;28;20025;-51
2023/04/17 03:11:37;;;;;;;79.93;39.00;;;9.40;99.90;;;;;;5032729;28;20025;-53
2023/04/17 03:14:03;;;;;;;69.03;37.70;;;9.40;99.90;;;;;;5032594;28;20028;-52
2023/04/17 03:16:29;;;;;;;65.50;35.87;;;9.40;99.90;;;;;;5050412;28;20025;-52
2023/04/17 03:18:58;;;;;;;;;;;9.40;99.90;;;;;;5033249;28;20032;-50
2023/04/17 03:21:25;;;;;;;74.57;35.77;;;9.40;99.90;;;;;;5050509;28;20478;-52
2023/04/17 03:23:51;;;;;;;67.17;36.63;;;9.50;99.90;;;;;;5032021;28;20394;-54
2023/04/17 03:26:20;;;;;;;70.50;37.27;;;9.50;99.90;;;;;;5032345;28;20417;-49
2023/04/17 03:28:46;;;;;;;66.90;37.50;;;9.50;99.90;;;;;;5032347;28;20112;-52
2023/04/17 03:31:12;;;;;;;65.73;36.67;;;9.50;99.90;;;;;;5032622;28;20120;-54
2023/04/17 03:33:38;;;;;;;69.63;38.63;;;9.50;99.90;;;;;;5032395;28;20129;-55
2023/04/17 03:36:04;;;;;;;66.73;37.57;;;9.50;99.90;;;;;;5050486;28;20091;-51
2023/04/17 03:38:32;;;;;;;75.53;38.57;;;9.50;99.90;;;;;;5032187;28;20052;-53
2023/04/17 03:40:58;;;;;;;69.50;38.00;;;9.40;99.90;;;;;;5050333;28;20532;-53
2023/04/17 03:43:24;;;;;;;68.00;38.37;;;9.40;99.90;;;;;;5032052;28;20064;-52
2023/04/17 03:45:50;;;;;;;68.70;37.67;;;9.40;99.90;;;;;;5032548;28;20035;-50
2023/04/17 03:48:17;;;;;;;70.17;38.30;;;9.40;99.90;;;;;;5031983;28;20493;-52
2023/04/17 03:50:44;;;;;;;70.33;38.00;;;9.40;99.90;;;;;;5032381;28;20048;-54
2023/04/17 03:53:11;;;;;;;71.97;39.40;;;9.30;99.90;;;;;;5031771;28;20029;-52
2023/04/17 03:55:37;;;;;;;68.13;38.37;;;9.30;99.90;;;;;;5048652;28;20029;-51
2023/04/17 03:58:03;;;;;;;74.90;38.47;;;9.30;99.90;;;;;;5048602;28;20091;-50
2023/04/17 04:00:31;;;;;;;72.30;38.97;;;9.20;99.90;;;;;;5051967;28;20032;-52
2023/04/17 04:03:03;;;;;;;72.33;40.90;;;9.20;99.90;;;;;;5052109;28;20017;-52
2023/04/17 04:05:36;;;;;;;71.00;38.87;;;9.20;99.90;;;;;;5052042;28;20028;-54
2023/04/17 04:08:02;;;;;;;70.60;39.23;;;9.20;99.90;;;;;;5051669;28;20116;-51
2023/04/17 04:10:34;;;;;;;74.47;37.70;;;9.20;99.90;;;;;;5045565;28;20044;-52
2023/04/17 04:13:00;;;;;;;69.57;39.73;;;9.20;99.90;;;;;;5050032;28;20029;-48
2023/04/17 04:15:27;;;;;;;74.23;38.83;;;9.20;99.90;;;;;;5038361;28;20509;-53
2023/04/17 04:17:57;;;;;;;71.73;39.27;;;9.20;99.90;;;;;;5026882;28;20159;-52
2023/04/17 04:20:23;;;;;;;70.90;37.87;;;9.10;99.90;;;;;;5047097;28;20112;-50
2023/04/17 04:22:56;;;;;;;78.17;41.20;;;9.10;99.90;;;;;;5046922;28;20136;-53
2023/04/17 04:25:22;;;;;;;77.90;40.83;;;9.10;99.90;;;;;;5047035;28;20044;-47
2023/04/17 04:28:01;;;;;;;82.72;39.90;;;9.10;99.90;;;;;;5046601;28;20648;-47
2023/04/17 04:30:34;;;;;;;75.17;41.47;;;9.10;99.90;;;;;;5048071;28;20575;-50
2023/04/17 04:33:07;;;;;;;81.40;41.45;;;9.10;99.90;;;;;;5046364;28;20029;-52
2023/04/17 04:35:33;;;;;;;75.97;40.30;;;9.20;99.90;;;;;;5049095;28;20048;-49
2023/04/17 04:38:01;;;;;;;81.27;42.83;;;9.20;99.90;;;;;;5052162;28;20021;-50
2023/04/17 04:40:29;;;;;;;80.00;41.07;;;9.10;99.90;;;;;;5050794;28;20162;-47
2023/04/17 04:42:55;;;;;;;83.33;42.63;;;9.10;99.90;;;;;;5052027;28;20108;-52
2023/04/17 04:45:27;;;;;;;77.47;41.83;;;9.10;99.90;;;;;;5051555;28;20090;-47
2023/04/17 04:47:53;;;;;;;80.33;41.40;;;9.10;99.90;;;;;;5049459;28;20079;-50
2023/04/17 04:50:19;;;;;;;75.53;41.30;;;9.10;99.90;;;;;;5051742;28;20025;-54
2023/04/17 04:52:45;;;;;;;80.60;41.23;;;9.10;99.90;;;;;;5051860;28;20021;-50
2023/04/17 04:55:34;;;;;;;72.90;40.28;;;9.20;99.90;;;;;;5024067;28;20101;-47
2023/04/17 04:57:59;;;;;;;77.13;39.03;;;9.20;99.90;;;;;;5030099;28;20397;-48
2023/04/17 05:00:26;;;;;;;69.90;38.20;;;9.20;99.90;;;;;;5030172;28;20018;-50
2023/04/17 05:02:55;;;;;;;68.25;38.33;;;9.20;99.90;;;;;;5031463;28;20542;-50
2023/04/17 05:05:24;;;;;;;66.55;38.35;;;9.30;99.90;;;;;;5033533;28;20033;-52
2023/04/17 05:07:53;;;;;;;73.23;39.43;;;9.30;99.90;;;;;;5032919;28;20040;-47
2023/04/17 05:10:20;;;;;;;68.25;37.47;;;9.30;99.90;;;;;;5033908;28;20364;-48
2023/04/17 05:12:50;;;;;;;68.07;38.80;;;9.30;99.90;;;;;;5033527;28;20033;-49
2023/04/17 05:15:16;;;;;;;74.90;39.50;;;9.30;99.90;;;;;;5035509;28;20127;-46
2023/04/17 05:17:43;;;;;;;66.63;37.33;;;9.30;99.90;;;;;;5039953;28;20059;-49
2023/04/17 05:20:14;;;;;;;67.83;38.77;;;9.30;99.90;;;;;;5045800;28;20029;-47
2023/04/17 05:22:50;;;;;;;72.93;39.03;;;9.30;99.90;;;;;;5049764;28;20028;-51
2023/04/17 05:25:15;;;;;;;68.10;38.13;;;9.30;99.90;;;;;;5049729;28;20033;-48
2023/04/17 05:27:42;;;;;;;68.03;37.93;;;9.30;99.90;;;;;;5049386;28;20037;-50
2023/04/17 05:30:09;;;;;;;70.63;39.30;;;9.30;99.90;;;;;;5049466;28;20371;-48
2023/04/17 05:32:35;;;;;;;70.03;39.60;;;9.30;99.90;;;;;;5048903;28;20021;-50
2023/04/17 05:35:21;;;;;;;69.97;38.27;;;9.20;99.90;;;;;;5049604;28;20029;-51
2023/04/17 05:37:49;;;;;;;74.70;40.30;;;9.20;99.90;;;;;;5042502;28;20020;-52
2023/04/17 05:40:15;;;;;;;69.80;38.90;;;9.20;99.90;;;;;;5033023;28;20033;-48
2023/04/17 05:42:41;;;;;;;69.43;39.13;;;9.20;99.90;;;;;;5032847;28;20089;-49
2023/04/17 05:45:12;;;;;;;67.43;38.43;;;9.30;99.90;;;;;;5043717;28;20028;-53
2023/04/17 05:47:37;;;;;;;80.13;40.03;;;9.30;99.90;;;;;;5068657;28;20032;-50
2023/04/17 05:50:04;;;;;;;74.23;39.83;;;9.40;99.90;;;;;;5052269;28;20043;-48
2023/04/17 05:52:29;;;;;;;72.40;37.73;;;9.40;99.90;;;;;;5052241;28;20032;-50
2023/04/17 05:54:56;;;;;;;68.27;37.83;;;9.50;99.90;;;;;;5052121;28;20029;-52
2023/04/17 05:57:22;;;;;;;68.60;38.27;;;9.60;99.90;;;;;;5070316;28;20031;-50
2023/04/17 05:59:48;;;;;;;65.10;38.70;;;9.60;99.90;;;;;;5051928;28;20036;-50
2023/04/17 06:02:15;;;;;;;66.23;37.93;;;9.60;99.90;;;;;;5051688;28;20025;-51
2023/04/17 06:04:42;;;;;;;63.00;37.87;;;9.60;99.90;;;;;;5070294;28;20028;-51
2023/04/17 06:07:09;;;;;;;64.37;37.80;;;9.70;99.90;;;;;;5045525;28;20134;-49
2023/04/17 06:09:39;;;;;;;67.73;38.23;;;9.70;99.90;;;;;;5031697;28;20033;-53
2023/04/17 06:12:05;;;;;;;64.10;35.87;;;9.70;99.90;;;;;;5032035;28;20021;-53
2023/04/17 06:14:31;;;;;;;66.70;38.77;;;9.80;99.90;;;;;;5031574;28;20492;-51
2023/04/17 06:16:59;;;;;;;64.13;37.70;;;9.80;99.90;;;;;;5030384;28;20067;-53
2023/04/17 06:19:25;;;;;;;63.27;37.43;;;9.80;99.90;;;;;;5049997;28;20025;-54
2023/04/17 06:21:50;;;;;;;66.40;38.60;;;9.80;99.90;;;;;;5031497;28;20067;-50
2023/04/17 06:24:18;;;;;;;65.70;37.27;;;9.80;99.90;;;;;;5031808;28;20039;-53
2023/04/17 06:26:46;;;;;;;62.00;36.70;;;9.80;99.90;;;;;;5031051;28;20071;-55
2023/04/17 06:29:12;;;;;;;64.10;36.53;;;9.90;99.90;;;;;;5049737;28;20055;-54
2023/04/17 06:31:38;;;;;;;65.50;37.83;;;9.90;99.90;;;;;;5030666;28;20453;-53
2023/04/17 06:34:04;;;;;;;63.73;38.07;;;9.90;99.90;;;;;;5031619;28;20032;-52
2023/04/17 06:36:37;;;;;;;59.73;35.50;;;9.90;99.90;;;;;;5031061;28;20029;-49
2023/04/17 06:39:03;;;;;;;61.90;36.83;;;9.90;99.90;;;;;;5049559;28;20071;-50
2023/04/17 06:41:29;;;;;;;60.23;36.13;;;9.90;99.90;;;;;;5031367;28;20144;-52
2023/04/17 06:43:55;;;;;;;65.50;37.40;;;9.90;99.90;;;;;;5031530;28;20037;-51
2023/04/17 06:46:21;;;;;;;58.90;35.00;;;10.00;99.90;;;;;;5029969;28;20036;-51
2023/04/17 06:48:50;;;;;;;62.13;36.23;;;10.10;99.90;;;;;;5031218;28;20064;-51
2023/04/17 06:51:20;;;;;;;63.42;37.20;;;10.10;99.90;;;;;;5031515;28;20163;-54
2023/04/17 06:53:47;;;;;;;60.17;36.10;;;10.20;99.90;;;;;;5049738;28;20102;-50
2023/04/17 06:56:13;;;;;;;57.63;35.57;;;10.20;99.90;;;;;;5049367;28;20590;-55
2023/04/17 06:58:42;;;;;;;63.70;35.53;;;10.30;99.90;;;;;;5048017;28;20068;-54
2023/04/17 07:01:12;;;;;;;59.70;36.40;;;10.40;99.90;;;;;;5048984;28;20263;-54
2023/04/17 07:03:38;;;;;;;61.03;36.70;;;10.30;99.90;;;;;;5048488;28;20122;-51
2023/04/17 07:06:05;;;;;;;58.23;36.53;;;10.30;99.90;;;;;;5049538;28;20136;-58
2023/04/17 07:08:31;;;;;;;64.00;38.27;;;10.30;99.90;;;;;;5048469;28;20469;-53
2023/04/17 07:10:56;;;;;;;64.37;37.33;;;10.20;99.90;;;;;;5049264;28;20128;-55
2023/04/17 07:13:22;;;;;;;65.50;39.90;;;10.30;99.90;;;;;;5048849;28;20135;-45
2023/04/17 07:15:55;;;;;;;61.50;38.23;;;10.40;99.90;;;;;;5048688;28;20021;-53
2023/04/17 07:18:21;;;;;;;60.10;38.30;;;10.40;99.90;;;;;;5047889;28;20338;-57
2023/04/17 07:20:48;;;;;;;68.93;39.20;;;10.40;99.90;;;;;;5049182;28;20036;-58
2023/04/17 07:23:14;;;;;;;63.10;40.17;;;10.40;99.90;;;;;;5048850;28;20118;-57
2023/04/17 07:25:40;;;;;;;68.70;40.23;;;10.40;99.90;;;;;;5048398;28;20320;-55
2023/04/17 07:28:06;;;;;;;67.90;41.47;;;10.30;99.90;;;;;;5065717;22;20131;-46
2023/04/17 07:30:31;;;;;;;61.97;38.87;;;10.30;99.90;;;;;;5068054;28;20035;-47
2023/04/17 07:32:57;;;;;;;59.67;37.83;;;10.20;99.90;;;;;;5068167;28;20111;-47
2023/04/17 07:35:23;;;;;;;70.63;38.87;;;10.20;99.90;;;;;;5068485;28;20028;-47
2023/04/17 07:37:49;;;;;;;63.60;39.60;;;10.20;99.90;;;;;;5068172;28;20508;-48
2023/04/17 07:40:16;;;;;;;61.63;37.43;;;10.20;99.90;;;;;;5068155;28;20056;-47
2023/04/17 07:42:41;;;;;;;61.07;38.07;;;10.20;99.90;;;;;;5068629;28;20090;-52
2023/04/17 07:45:08;;;;;;;59.90;37.37;;;10.20;99.90;;;;;;5068201;28;20032;-48
2023/04/17 07:47:34;;;;;;;63.27;36.87;;;10.30;99.90;;;;;;5067300;28;20108;-46
2023/04/17 07:50:00;;;;;;;61.17;37.13;;;10.30;99.90;;;;;;5068445;28;20028;-47
2023/04/17 07:52:26;;;;;;;54.20;34.93;;;10.30;99.90;;;;;;5068260;28;20404;-49
2023/04/17 07:54:52;;;;;;;52.07;34.80;;;10.30;99.90;;;;;;5068249;28;20036;-45
2023/04/17 07:57:17;;;;;;;57.97;35.83;;;10.30;99.90;;;;;;5068141;28;20163;-46
2023/04/17 07:59:44;;;;;;;58.63;37.63;;;10.40;99.90;;;;;;5068324;28;20024;-46
2023/04/17 08:02:10;;;;;;;59.10;37.47;;;10.40;99.90;;;;;;5067916;28;20449;-47
2023/04/17 08:04:38;;;;;;;60.63;39.33;;;10.60;99.90;;;;;;5068439;28;20040;-50
2023/04/17 08:07:09;;;;;;;59.38;37.78;;;10.70;99.90;;;;;;5068045;28;20024;-47
2023/04/17 08:09:36;;;;;;;58.60;39.40;;;10.80;99.90;;;;;;5069288;28;20032;-48
2023/04/17 08:12:02;;;;;;;60.50;38.27;;;10.90;99.90;;;;;;5072489;28;20043;-49
2023/04/17 08:14:28;;;;;;;58.43;37.23;;;11.00;99.90;;;;;;5072467;28;20021;-48
2023/04/17 08:16:54;;;;;;;60.03;37.17;;;11.00;99.90;;;;;;5071387;28;20082;-47
2023/04/17 08:19:20;;;;;;;54.63;36.27;;;11.10;99.90;;;;;;5072454;28;20036;-47
2023/04/17 08:21:49;;;;;;;58.43;38.10;;;10.90;99.90;;;;;;5072174;28;20039;-47
2023/04/17 08:24:16;;;;;;;61.93;39.33;;;11.00;99.90;;;;;;5072391;28;20373;-47
2023/04/17 08:26:42;;;;;;;56.60;37.20;;;10.90;99.90;;;;;;5072044;28;20033;-48
2023/04/17 08:29:08;;;;;;;59.30;39.53;;;11.00;99.90;;;;;;5072148;28;20037;-48
2023/04/17 08:31:38;;;;;;;60.80;39.93;;;11.10;99.90;;;;;;5071242;28;20033;-49
2023/04/17 08:34:04;;;;;;;58.60;38.70;;;11.20;99.90;;;;;;5072133;28;20028;-47
2023/04/17 08:36:30;;;;;;;59.87;39.03;;;11.20;99.90;;;;;;5072012;28;20031;-48
2023/04/17 08:38:56;;;;;;;61.37;38.30;;;11.30;99.90;;;;;;5072218;28;20396;-47
2023/04/17 08:41:27;;;;;;;57.00;37.30;;;11.50;99.90;;;;;;5072172;28;20035;-46
2023/04/17 08:43:55;;;;;;;56.53;37.45;;;11.50;99.90;;;;;;5072019;28;20136;-46
2023/04/17 08:46:21;;;;;;;63.30;38.93;;;11.70;99.90;;;;;;5071024;28;20370;-46
2023/04/17 08:48:46;;;;;;;57.80;38.00;;;11.70;99.90;;;;;;5071789;28;20093;-46
2023/04/17 08:51:13;;;;;;;64.22;38.70;;;11.90;99.90;;;;;;5071766;28;20082;-46
2023/04/17 08:53:38;;;;;;;57.50;38.90;;;11.90;99.90;;;;;;5072091;28;20047;-50
2023/04/17 08:56:05;;;;;;;59.00;38.88;;;11.80;99.90;;;;;;5070387;28;20041;-47
2023/04/17 08:58:32;;;;;;;53.50;37.17;;;12.00;99.90;;;;;;5071450;28;20051;-49
2023/04/17 09:01:09;;;;;;;59.58;38.10;;;12.00;99.90;;;;;;5071505;28;20039;-47
2023/04/17 09:03:43;;;;;;;54.58;36.83;;;12.20;99.90;;;;;;5071307;28;20108;-46
2023/04/17 09:06:12;;;;;;;55.78;37.33;;;12.20;99.90;;;;;;5070451;28;20032;-47
2023/04/17 09:08:39;;;;;;;;;;;12.20;99.90;;;;;;5072045;28;20414;-49
2023/04/17 09:11:15;;;;;;;58.33;37.83;;;12.10;99.90;;;;;;5071737;28;19908;-48
2023/04/17 09:13:41;;;;;;;58.10;36.70;;;12.20;99.90;;;;;;5071660;28;20033;-47
2023/04/17 09:16:12;;;;;;;51.47;33.65;;;12.40;99.90;;;;;;5071212;28;20063;-46
2023/04/17 09:18:41;;;;;;;46.90;32.40;;;12.50;99.90;;;;;;5070378;28;20025;-45
2023/04/17 09:21:07;;;;;;;45.40;30.65;;;12.70;99.90;;;;;;5069322;28;20146;-47
2023/04/17 09:23:54;;;;;;;43.47;31.40;;;13.00;99.90;;;;;;5071415;28;20039;-46
2023/04/17 09:26:22;;;;;;;48.15;31.48;;;13.00;99.90;;;;;;5071047;28;20032;-50
2023/04/17 09:29:13;;;;;;;47.15;33.08;;;13.10;99.90;;;;;;5071303;28;20052;-48
2023/04/17 09:31:43;;;;;;;48.55;33.40;;;13.30;99.90;;;;;;5070236;28;20033;-47
2023/04/17 09:34:11;;;;;;;44.08;29.75;;;13.50;99.90;;;;;;5071164;28;20024;-49
2023/04/17 09:36:38;;;;;;;42.53;29.45;;;13.50;99.90;;;;;;5070865;28;20115;-46
2023/04/17 09:39:15;;;;;;;43.03;29.15;;;13.50;99.90;;;;;;5070994;28;20039;-47
2023/04/17 09:41:41;;;;;;;35.25;25.38;;;13.50;99.90;;;;;;5071193;28;20376;-47
2023/04/17 09:44:08;;;;;;;34.10;24.10;;;13.70;99.90;;;;;;5071123;28;20178;-48
2023/04/17 09:46:46;;;;;;;31.17;22.35;;;14.00;99.90;;;;;;5070118;28;20565;-46
2023/04/17 09:49:41;;;;;;;26.73;18.98;;;14.70;99.90;;;;;;5070924;28;20370;-46
2023/04/17 09:52:08;;;;;;;33.45;19.15;;;15.20;99.90;;;;;;5065510;28;20186;-46
2023/04/17 09:54:37;;;;;;;25.60;19.05;;;15.80;99.90;;;;;;5070782;28;20039;-48
2023/04/17 09:57:07;;;;;;;23.63;17.58;;;16.20;99.90;;;;;;5070098;28;20025;-44
2023/04/17 09:59:33;;;;;;;23.27;16.63;;;16.30;99.90;;;;;;5070305;28;20047;-44
2023/04/17 10:02:00;;;;;;;20.63;15.35;;;16.30;99.90;;;;;;5069671;28;20179;-43
2023/04/17 10:04:27;;;;;;;20.23;14.30;;;16.10;99.90;;;;;;5070346;28;20623;-43
2023/04/17 10:06:56;;;;;;;21.50;14.10;;;15.80;99.90;;;;;;5070083;28;20122;-43
2023/04/17 10:09:22;;;;;;;16.92;12.27;;;15.70;99.90;;;;;;5070507;28;20038;-46
2023/04/17 10:11:48;;;;;;;18.88;12.35;;;15.60;99.90;;;;;;5070313;28;20029;-46
2023/04/17 10:14:19;;;;;;;15.25;10.85;;;15.30;99.90;;;;;;5070335;28;20054;-45
2023/04/17 10:16:46;;;;;;;19.33;12.18;;;15.50;99.90;;;;;;5069405;28;20115;-46
2023/04/17 10:19:43;;;;;;;20.60;13.40;;;15.40;99.90;;;;;;5069505;28;20447;-46
2023/04/17 10:22:14;;;;;;;17.90;12.95;;;15.30;99.90;;;;;;5061524;28;20443;-47
2023/04/17 10:24:46;;;;;;;18.40;11.82;;;15.50;99.80;;;;;;5070163;28;20035;-46
2023/04/17 10:27:26;;;;;;;18.23;12.32;;;15.90;99.90;;;;;;5069853;28;20032;-49
2023/04/17 10:30:01;;;;;;;17.77;11.52;;;16.40;98.10;;;;;;5069779;28;20056;-48
2023/04/17 10:32:27;;;;;;;16.48;11.18;;;16.50;98.00;;;;;;5069358;28;20374;-49
2023/04/17 10:35:02;;;;;;;16.98;12.43;;;16.50;98.80;;;;;;5069744;28;20047;-50
2023/04/17 10:38:04;;;;;;;18.85;12.90;;;16.50;97.50;;;;;;5069547;28;20170;-51
2023/04/17 10:40:34;;;;;;;19.85;12.13;;;17.40;96.60;;;;;;5070190;28;20041;-51
2023/04/17 10:43:06;;;;;;;18.52;12.48;;;18.20;94.40;;;;;;5069528;28;20033;-56
2023/04/17 10:46:00;;;;;;;15.52;10.90;;;18.60;93.40;;;;;;5066888;28;20098;-52
2023/04/17 10:48:37;;;;;;;14.07;10.13;;;19.60;91.10;;;;;;5063686;28;20066;-54
2023/04/17 10:51:27;;;;;;;14.20;10.68;;;20.20;86.30;;;;;;5069526;28;20427;-51
2023/04/17 10:54:00;;;;;;;19.73;11.02;;;20.40;85.20;;;;;;5069101;28;20051;-53
2023/04/17 10:56:37;;;;;;;16.17;11.18;;;20.20;82.80;;;;;;5068757;28;20025;-47
2023/04/17 10:59:04;;;;;;;13.77;10.73;;;19.50;82.60;;;;;;5069663;28;20047;-46
2023/04/17 11:01:35;;;;;;;14.63;10.68;;;19.10;83.00;;;;;;5068680;28;20123;-47
2023/04/17 11:04:02;;;;;;;13.95;10.60;;;18.90;86.50;;;;;;5069477;28;20021;-48
2023/04/17 11:06:31;;;;;;;15.25;10.20;;;19.30;85.40;;;;;;5068788;28;20464;-50
2023/04/17 11:08:58;;;;;;;12.18;8.65;;;19.80;85.60;;;;;;5069385;28;20029;-49
2023/04/17 11:11:25;;;;;;;14.73;9.07;;;20.30;78.30;;;;;;5069202;28;20421;-50
2023/04/17 11:13:51;;;;;;;12.13;8.95;;;19.80;77.50;;;;;;5069209;28;20060;-46
2023/04/17 11:16:18;;;;;;;13.05;9.68;;;19.70;78.30;;;;;;5068451;28;20063;-47
2023/04/17 11:18:44;;;;;;;16.45;10.30;;;19.40;77.20;;;;;;5068779;28;20067;-46
2023/04/17 11:21:14;;;;;;;14.13;9.10;;;19.20;77.70;;;;;;5067758;28;20389;-48
2023/04/17 11:23:48;;;;;;;14.75;9.30;;;19.50;79.00;;;;;;5069180;28;20033;-51
2023/04/17 11:26:14;;;;;;;15.23;10.70;;;19.60;77.90;;;;;;5069388;28;20033;-49
2023/04/17 11:28:40;;;;;;;15.90;9.38;;;19.30;79.40;;;;;;5069362;28;20064;-46
2023/04/17 11:31:05;;;;;;;11.88;8.20;;;18.90;77.10;;;;;;5069005;28;20176;-49
2023/04/17 11:33:35;;;;;;;13.73;7.78;;;18.90;76.30;;;;;;5068079;28;20488;-51
2023/04/17 11:36:03;;;;;;;13.98;8.18;;;18.80;78.70;;;;;;5069179;28;20032;-47
2023/04/17 11:38:29;;;;;;;13.57;8.43;;;18.70;77.80;;;;;;5068813;28;20056;-52
2023/04/17 11:40:59;;;;;;;12.55;8.15;;;18.80;80.60;;;;;;5069269;28;20060;-49
2023/04/17 11:43:26;;;;;;;14.48;8.35;;;18.70;79.70;;;;;;5068987;28;20052;-48
2023/04/17 11:45:55;;;;;;;13.88;8.75;;;18.50;79.40;;;;;;5068060;28;20061;-48
2023/04/17 11:48:26;;;;;;;13.88;9.52;;;18.30;81.20;;;;;;5068288;28;20029;-50
2023/04/17 11:50:57;;;;;;;11.68;8.00;;;18.00;82.00;;;;;;5069311;28;20021;-48
2023/04/17 11:53:23;;;;;;;10.35;7.80;;;18.00;81.30;;;;;;5066614;28;20396;-50
2023/04/17 11:56:10;;;;;;;12.57;7.00;;;17.70;79.40;;;;;;5069142;28;20446;-46
2023/04/17 11:58:50;;;;;;;10.10;7.45;;;17.60;80.20;;;;;;5068393;28;20029;-48
2023/04/17 12:01:18;;;;;;;10.90;7.00;;;17.40;79.60;;;;;;5068672;28;20093;-49
2023/04/17 12:03:44;;;;;;;9.40;6.55;;;17.10;78.80;;;;;;5068856;28;20032;-46
2023/04/17 12:06:12;;;;;;;10.05;6.15;;;16.90;77.90;;;;;;5069031;28;20024;-48
2023/04/17 12:08:49;;;;;;;9.20;6.18;;;16.90;77.20;;;;;;5068013;28;20067;-45
2023/04/17 12:11:21;;;;;;;14.30;6.32;;;16.60;77.90;;;;;;5068731;28;20036;-47
2023/04/17 12:13:47;;;;;;;12.88;7.35;;;16.90;80.40;;;;;;5068862;28;20382;-49
2023/04/17 12:16:12;;;;;;;10.35;7.10;;;17.20;80.10;;;;;;5068066;28;20020;-49
2023/04/17 12:18:38;;;;;;;10.75;6.93;;;17.40;78.30;;;;;;5067210;28;20020;-49
2023/04/17 12:21:04;;;;;;;14.43;7.82;;;17.50;79.40;;;;;;5068536;28;20115;-48
2023/04/17 12:23:30;;;;;;;10.70;7.00;;;17.70;76.90;;;;;;5068110;28;20041;-48
2023/04/17 12:25:56;;;;;;;15.30;7.20;;;17.70;77.50;;;;;;5068541;28;20191;-48
2023/04/17 12:28:21;;;;;;;15.15;7.57;;;17.60;77.40;;;;;;5067679;28;20032;-47
2023/04/17 12:30:47;;;;;;;11.98;7.75;;;17.50;77.40;;;;;;5068065;28;20024;-47
2023/04/17 12:33:13;;;;;;;13.38;7.32;;;17.60;75.80;;;;;;5067517;28;20033;-48
2023/04/17 12:35:38;;;;;;;13.90;7.38;;;17.50;74.90;;;;;;5066834;28;20120;-47
2023/04/17 12:38:04;;;;;;;16.55;7.43;;;17.80;75.10;;;;;;5067545;28;20074;-47